sensor_id;sensor_type;location;lat;lon;timestamp;temperature;humidity
8896;DHT22;4484;48.928;10.066;2022-12-07T00:01:21;1.40;99.90
8896;DHT22;4484;48.928;10.066;2022-12-07T00:03:50;1.30;99.90
8896;DHT22;4484;48.928;10.066;2022-12-07T00:06:18;1.30;99.90
8896;DHT22;4484;48.928;10.066;2022-12-07T00:08:47;1.30;99.90
8896;DHT22;4484;48.928;10.066;2022-12-07T00:11:23;1.30;99.90
8896;DHT22;4484;48.928;10.066;2022-12-07T00:13:56;1.30;99.90
8896;DHT22;4484;48.928;10.066;2022-12-07T00:16:26;1.40;99.90
8896;DHT22;4484;48.928;10.066;2022-12-07T00:18:54;1.40;99.90
8896;DHT22;4484;48.928;10.066;2022-12-07T00:21:24;1.40;99.90
8896;DHT22;4484;48.928;10.066;2022-12-07T00:23:52;1.40;99.90
8896;DHT22;4484;48.928;10.066;2022-12-07T00:26:25;1.40;99.90
8896;DHT22;4484;48.928;10.066;2022-12-07T00:29:00;1.40;99.90
8896;DHT22;4484;48.928;10.066;2022-12-07T00:31:30;1.40;99.90
8896;DHT22;4484;48.928;10.066;2022-12-07T00:34:00;1.40;99.90
8896;DHT22;4484;48.928;10.066;2022-12-07T00:36:27;1.40;99.90
8896;DHT22;4484;48.928;10.066;2022-12-07T00:38:57;1.40;99.90
8896;DHT22;4484;48.928;10.066;2022-12-07T00:41:25;1.40;99.90
8896;DHT22;4484;48.928;10.066;2022-12-07T00:43:52;1.40;99.90
8896;DHT22;4484;48.928;10.066;2022-12-07T00:46:20;1.40;99.90
8896;DHT22;4484;48.928;10.066;2022-12-07T00:48:48;1.40;99.90
8896;DHT22;4484;48.928;10.066;2022-12-07T00:51:16;1.40;99.90
8896;DHT22;4484;48.928;10.066;2022-12-07T00:53:44;1.40;99.90
8896;DHT22;4484;48.928;10.066;2022-12-07T00:56:20;1.40;99.90
8896;DHT22;4484;48.928;10.066;2022-12-07T00:58:59;1.40;99.90
8896;DHT22;4484;48.928;10.066;2022-12-07T01:01:28;1.40;99.90
8896;DHT22;4484;48.928;10.066;2022-12-07T01:03:56;1.40;99.90
8896;DHT22;4484;48.928;10.066;2022-12-07T01:06:24;1.30;99.90
8896;DHT22;4484;48.928;10.066;2022-12-07T01:08:53;1.30;99.90
8896;DHT22;4484;48.928;10.066;2022-12-07T01:11:22;1.30;99.90
8896;DHT22;4484;48.928;10.066;2022-12-07T01:13:54;1.30;99.90
8896;DHT22;4484;48.928;10.066;2022-12-07T01:16:23;1.30;99.90
8896;DHT22;4484;48.928;10.066;2022-12-07T01:18:53;1.30;99.90
8896;DHT22;4484;48.928;10.066;2022-12-07T01:21:22;1.30;99.90
8896;DHT22;4484;48.928;10.066;2022-12-07T01:23:49;1.30;99.90
8896;DHT22;4484;48.928;10.066;2022-12-07T01:26:19;1.20;99.90
8896;DHT22;4484;48.928;10.066;2022-12-07T01:28:47;1.20;99.90
8896;DHT22;4484;48.928;10.066;2022-12-07T01:31:16;1.20;99.90
8896;DHT22;4484;48.928;10.066;2022-12-07T01:33:46;1.20;99.90
8896;DHT22;4484;48.928;10.066;2022-12-07T01:38:45;1.20;99.90
8896;DHT22;4484;48.928;10.066;2022-12-07T01:41:13;1.20;99.90
8896;DHT22;4484;48.928;10.066;2022-12-07T01:46:40;1.20;99.90
8896;DHT22;4484;48.928;10.066;2022-12-07T01:49:11;1.20;99.90
8896;DHT22;4484;48.928;10.066;2022-12-07T01:51:40;1.30;99.90
8896;DHT22;4484;48.928;10.066;2022-12-07T01:54:09;1.20;99.90
8896;DHT22;4484;48.928;10.066;2022-12-07T01:56:40;1.30;99.90
8896;DHT22;4484;48.928;10.066;2022-12-07T01:59:09;1.30;99.90
8896;DHT22;4484;48.928;10.066;2022-12-07T02:01:36;1.30;99.90
8896;DHT22;4484;48.928;10.066;2022-12-07T02:04:03;1.30;99.90
8896;DHT22;4484;48.928;10.066;2022-12-07T02:06:31;1.30;99.90
8896;DHT22;4484;48.928;10.066;2022-12-07T02:08:58;1.30;99.90
8896;DHT22;4484;48.928;10.066;2022-12-07T02:11:25;1.30;99.90
8896;DHT22;4484;48.928;10.066;2022-12-07T02:13:53;1.30;99.90
8896;DHT22;4484;48.928;10.066;2022-12-07T02:27:45;1.30;99.90
8896;DHT22;4484;48.928;10.066;2022-12-07T02:30:19;1.30;99.90
8896;DHT22;4484;48.928;10.066;2022-12-07T02:32:51;1.30;99.90
8896;DHT22;4484;48.928;10.066;2022-12-07T02:35:30;1.30;99.90
8896;DHT22;4484;48.928;10.066;2022-12-07T02:40:52;1.30;99.90
8896;DHT22;4484;48.928;10.066;2022-12-07T02:43:27;1.30;99.90
8896;DHT22;4484;48.928;10.066;2022-12-07T02:45:59;1.30;99.90
8896;DHT22;4484;48.928;10.066;2022-12-07T02:48:31;1.30;99.90
8896;DHT22;4484;48.928;10.066;2022-12-07T02:50:58;1.20;99.90
8896;DHT22;4484;48.928;10.066;2022-12-07T02:53:43;1.20;99.90
8896;DHT22;4484;48.928;10.066;2022-12-07T03:12:48;1.20;99.90
8896;DHT22;4484;48.928;10.066;2022-12-07T03:15:25;1.20;99.90
8896;DHT22;4484;48.928;10.066;2022-12-07T03:17:55;1.10;99.90
8896;DHT22;4484;48.928;10.066;2022-12-07T03:20:25;1.10;99.90
8896;DHT22;4484;48.928;10.066;2022-12-07T03:22:54;1.10;99.90
8896;DHT22;4484;48.928;10.066;2022-12-07T03:25:22;1.10;99.90
8896;DHT22;4484;48.928;10.066;2022-12-07T03:27:49;1.00;99.90
8896;DHT22;4484;48.928;10.066;2022-12-07T03:30:24;1.00;99.90
8896;DHT22;4484;48.928;10.066;2022-12-07T03:33:13;0.90;99.90
8896;DHT22;4484;48.928;10.066;2022-12-07T03:35:48;0.80;99.90
8896;DHT22;4484;48.928;10.066;2022-12-07T03:38:28;0.80;99.90
8896;DHT22;4484;48.928;10.066;2022-12-07T03:41:36;0.70;99.90
8896;DHT22;4484;48.928;10.066;2022-12-07T03:43:56;0.70;99.90
8896;DHT22;4484;48.928;10.066;2022-12-07T03:51:51;0.70;99.90
8896;DHT22;4484;48.928;10.066;2022-12-07T03:54:32;0.60;99.90
8896;DHT22;4484;48.928;10.066;2022-12-07T03:57:01;0.60;99.90
8896;DHT22;4484;48.928;10.066;2022-12-07T03:59:29;0.60;99.90
8896;DHT22;4484;48.928;10.066;2022-12-07T04:02:02;0.60;99.90
8896;DHT22;4484;48.928;10.066;2022-12-07T04:04:33;0.60;99.90
8896;DHT22;4484;48.928;10.066;2022-12-07T04:07:00;0.60;99.90
8896;DHT22;4484;48.928;10.066;2022-12-07T04:09:27;0.50;99.90
8896;DHT22;4484;48.928;10.066;2022-12-07T04:11:54;0.50;99.90
8896;DHT22;4484;48.928;10.066;2022-12-07T04:14:21;0.50;99.90
8896;DHT22;4484;48.928;10.066;2022-12-07T04:16:53;0.40;99.90
8896;DHT22;4484;48.928;10.066;2022-12-07T04:19:25;0.40;99.90
8896;DHT22;4484;48.928;10.066;2022-12-07T04:21:53;0.40;99.90
8896;DHT22;4484;48.928;10.066;2022-12-07T04:24:20;0.40;99.90
8896;DHT22;4484;48.928;10.066;2022-12-07T04:26:47;0.40;99.90
8896;DHT22;4484;48.928;10.066;2022-12-07T04:29:15;0.40;99.90
8896;DHT22;4484;48.928;10.066;2022-12-07T04:31:42;0.40;99.90
8896;DHT22;4484;48.928;10.066;2022-12-07T04:34:10;0.40;99.90
8896;DHT22;4484;48.928;10.066;2022-12-07T04:36:38;0.40;99.90
8896;DHT22;4484;48.928;10.066;2022-12-07T04:39:07;0.40;99.90
8896;DHT22;4484;48.928;10.066;2022-12-07T04:41:34;0.40;99.90
8896;DHT22;4484;48.928;10.066;2022-12-07T04:44:02;0.40;99.90
8896;DHT22;4484;48.928;10.066;2022-12-07T04:46:31;0.40;99.90
8896;DHT22;4484;48.928;10.066;2022-12-07T04:48:58;0.40;99.90
8896;DHT22;4484;48.928;10.066;2022-12-07T04:51:27;0.40;99.90
8896;DHT22;4484;48.928;10.066;2022-12-07T04:53:55;0.40;99.90
8896;DHT22;4484;48.928;10.066;2022-12-07T04:56:23;0.50;99.90
8896;DHT22;4484;48.928;10.066;2022-12-07T04:58:52;0.50;99.90
8896;DHT22;4484;48.928;10.066;2022-12-07T05:01:20;0.50;99.90
8896;DHT22;4484;48.928;10.066;2022-12-07T05:03:47;0.50;99.90
8896;DHT22;4484;48.928;10.066;2022-12-07T05:06:14;0.50;99.90
8896;DHT22;4484;48.928;10.066;2022-12-07T05:08:42;0.50;99.90
8896;DHT22;4484;48.928;10.066;2022-12-07T05:11:10;0.50;99.90
8896;DHT22;4484;48.928;10.066;2022-12-07T05:13:57;0.50;99.90
8896;DHT22;4484;48.928;10.066;2022-12-07T05:16:24;0.50;99.90
8896;DHT22;4484;48.928;10.066;2022-12-07T05:18:54;0.50;99.90
8896;DHT22;4484;48.928;10.066;2022-12-07T05:21:21;0.60;99.90
8896;DHT22;4484;48.928;10.066;2022-12-07T05:23:48;0.60;99.90
8896;DHT22;4484;48.928;10.066;2022-12-07T05:26:15;0.60;99.90
8896;DHT22;4484;48.928;10.066;2022-12-07T05:28:42;0.60;99.90
8896;DHT22;4484;48.928;10.066;2022-12-07T05:31:09;0.60;99.90
8896;DHT22;4484;48.928;10.066;2022-12-07T05:33:36;0.60;99.90
8896;DHT22;4484;48.928;10.066;2022-12-07T05:36:03;0.60;99.90
8896;DHT22;4484;48.928;10.066;2022-12-07T05:38:32;0.60;99.90
8896;DHT22;4484;48.928;10.066;2022-12-07T05:41:03;0.60;99.90
8896;DHT22;4484;48.928;10.066;2022-12-07T05:43:30;0.60;99.90
8896;DHT22;4484;48.928;10.066;2022-12-07T05:45:58;0.70;99.90
8896;DHT22;4484;48.928;10.066;2022-12-07T05:48:25;0.60;99.90
8896;DHT22;4484;48.928;10.066;2022-12-07T05:50:52;0.60;99.90
8896;DHT22;4484;48.928;10.066;2022-12-07T05:53:19;0.70;99.90
8896;DHT22;4484;48.928;10.066;2022-12-07T05:55:49;0.70;99.90
8896;DHT22;4484;48.928;10.066;2022-12-07T05:58:16;0.70;99.90
8896;DHT22;4484;48.928;10.066;2022-12-07T06:01:01;0.70;99.90
8896;DHT22;4484;48.928;10.066;2022-12-07T06:03:28;0.70;99.90
8896;DHT22;4484;48.928;10.066;2022-12-07T06:05:55;0.70;99.90
8896;DHT22;4484;48.928;10.066;2022-12-07T06:08:22;0.70;99.90
8896;DHT22;4484;48.928;10.066;2022-12-07T06:10:49;0.70;99.90
8896;DHT22;4484;48.928;10.066;2022-12-07T06:13:38;0.70;99.90
8896;DHT22;4484;48.928;10.066;2022-12-07T06:16:12;0.70;99.90
8896;DHT22;4484;48.928;10.066;2022-12-07T06:18:39;0.70;99.90
8896;DHT22;4484;48.928;10.066;2022-12-07T06:21:06;0.70;99.90
8896;DHT22;4484;48.928;10.066;2022-12-07T06:23:33;0.70;99.90
8896;DHT22;4484;48.928;10.066;2022-12-07T06:26:00;0.70;99.90
8896;DHT22;4484;48.928;10.066;2022-12-07T06:28:26;0.70;99.90
8896;DHT22;4484;48.928;10.066;2022-12-07T06:30:58;0.70;99.90
8896;DHT22;4484;48.928;10.066;2022-12-07T06:33:26;0.70;99.90
8896;DHT22;4484;48.928;10.066;2022-12-07T06:35:53;0.70;99.90
8896;DHT22;4484;48.928;10.066;2022-12-07T06:38:20;0.70;99.90
8896;DHT22;4484;48.928;10.066;2022-12-07T06:40:47;0.70;99.90
8896;DHT22;4484;48.928;10.066;2022-12-07T06:43:15;0.70;99.90
8896;DHT22;4484;48.928;10.066;2022-12-07T06:45:42;0.70;99.90
8896;DHT22;4484;48.928;10.066;2022-12-07T06:48:09;0.70;99.90
8896;DHT22;4484;48.928;10.066;2022-12-07T06:50:36;0.70;99.90
8896;DHT22;4484;48.928;10.066;2022-12-07T06:53:03;0.70;99.90
8896;DHT22;4484;48.928;10.066;2022-12-07T06:55:29;0.70;99.90
8896;DHT22;4484;48.928;10.066;2022-12-07T06:57:56;0.70;99.90
8896;DHT22;4484;48.928;10.066;2022-12-07T07:00:24;0.70;99.90
8896;DHT22;4484;48.928;10.066;2022-12-07T07:02:52;0.70;99.90
8896;DHT22;4484;48.928;10.066;2022-12-07T07:05:18;0.70;99.90
8896;DHT22;4484;48.928;10.066;2022-12-07T07:07:51;0.70;99.90
8896;DHT22;4484;48.928;10.066;2022-12-07T07:10:38;0.70;99.90
8896;DHT22;4484;48.928;10.066;2022-12-07T07:13:05;0.70;99.90
8896;DHT22;4484;48.928;10.066;2022-12-07T07:15:33;0.70;99.90
8896;DHT22;4484;48.928;10.066;2022-12-07T07:18:00;0.80;99.90
8896;DHT22;4484;48.928;10.066;2022-12-07T07:20:33;0.70;99.90
8896;DHT22;4484;48.928;10.066;2022-12-07T07:23:01;0.70;99.90
8896;DHT22;4484;48.928;10.066;2022-12-07T07:25:28;0.70;99.90
8896;DHT22;4484;48.928;10.066;2022-12-07T07:27:54;0.70;99.90
8896;DHT22;4484;48.928;10.066;2022-12-07T07:30:22;0.70;99.90
8896;DHT22;4484;48.928;10.066;2022-12-07T07:32:49;0.70;99.90
8896;DHT22;4484;48.928;10.066;2022-12-07T07:35:16;0.80;99.90
8896;DHT22;4484;48.928;10.066;2022-12-07T07:37:43;0.80;99.90
8896;DHT22;4484;48.928;10.066;2022-12-07T07:40:10;0.80;99.90
8896;DHT22;4484;48.928;10.066;2022-12-07T07:42:37;0.80;99.90
8896;DHT22;4484;48.928;10.066;2022-12-07T07:45:04;0.80;99.90
8896;DHT22;4484;48.928;10.066;2022-12-07T07:47:31;0.90;99.90
8896;DHT22;4484;48.928;10.066;2022-12-07T07:49:59;0.90;99.90
8896;DHT22;4484;48.928;10.066;2022-12-07T07:52:26;0.90;99.90
8896;DHT22;4484;48.928;10.066;2022-12-07T07:54:53;0.90;99.90
8896;DHT22;4484;48.928;10.066;2022-12-07T07:57:20;0.90;99.90
8896;DHT22;4484;48.928;10.066;2022-12-07T07:59:47;0.90;99.90
8896;DHT22;4484;48.928;10.066;2022-12-07T08:02:16;1.00;99.90
8896;DHT22;4484;48.928;10.066;2022-12-07T08:04:44;1.00;99.90
8896;DHT22;4484;48.928;10.066;2022-12-07T08:07:11;1.00;99.90
8896;DHT22;4484;48.928;10.066;2022-12-07T08:09:39;1.00;99.90
8896;DHT22;4484;48.928;10.066;2022-12-07T08:12:06;1.00;99.90
8896;DHT22;4484;48.928;10.066;2022-12-07T08:14:33;1.10;99.90
8896;DHT22;4484;48.928;10.066;2022-12-07T08:17:00;1.10;99.90
8896;DHT22;4484;48.928;10.066;2022-12-07T08:19:27;1.10;99.90
8896;DHT22;4484;48.928;10.066;2022-12-07T08:21:55;1.10;99.90
8896;DHT22;4484;48.928;10.066;2022-12-07T08:24:22;1.20;99.90
8896;DHT22;4484;48.928;10.066;2022-12-07T08:26:49;1.20;99.90
8896;DHT22;4484;48.928;10.066;2022-12-07T08:29:17;1.20;99.90
8896;DHT22;4484;48.928;10.066;2022-12-07T08:31:44;1.20;99.90
8896;DHT22;4484;48.928;10.066;2022-12-07T08:34:11;1.20;99.90
8896;DHT22;4484;48.928;10.066;2022-12-07T08:36:39;1.30;99.90
8896;DHT22;4484;48.928;10.066;2022-12-07T08:39:06;1.30;99.90
8896;DHT22;4484;48.928;10.066;2022-12-07T08:41:53;1.30;99.90
8896;DHT22;4484;48.928;10.066;2022-12-07T08:44:19;1.30;99.90
8896;DHT22;4484;48.928;10.066;2022-12-07T08:46:56;1.40;99.90
8896;DHT22;4484;48.928;10.066;2022-12-07T08:49:39;1.40;99.90
8896;DHT22;4484;48.928;10.066;2022-12-07T08:52:07;1.40;99.90
8896;DHT22;4484;48.928;10.066;2022-12-07T08:54:36;1.40;99.90
8896;DHT22;4484;48.928;10.066;2022-12-07T08:57:05;1.40;99.90
8896;DHT22;4484;48.928;10.066;2022-12-07T08:59:34;1.50;99.90
8896;DHT22;4484;48.928;10.066;2022-12-07T09:02:02;1.50;99.90
8896;DHT22;4484;48.928;10.066;2022-12-07T09:04:29;1.50;99.90
8896;DHT22;4484;48.928;10.066;2022-12-07T09:06:56;1.50;99.90
8896;DHT22;4484;48.928;10.066;2022-12-07T09:09:23;1.60;99.90
8896;DHT22;4484;48.928;10.066;2022-12-07T09:11:50;1.70;99.90
8896;DHT22;4484;48.928;10.066;2022-12-07T09:14:16;1.60;99.90
8896;DHT22;4484;48.928;10.066;2022-12-07T09:16:43;1.70;99.90
8896;DHT22;4484;48.928;10.066;2022-12-07T09:19:10;1.70;99.90
8896;DHT22;4484;48.928;10.066;2022-12-07T09:21:37;1.80;99.90
8896;DHT22;4484;48.928;10.066;2022-12-07T09:24:04;1.80;99.90
8896;DHT22;4484;48.928;10.066;2022-12-07T09:26:31;1.80;99.90
8896;DHT22;4484;48.928;10.066;2022-12-07T09:28:58;1.90;99.90
8896;DHT22;4484;48.928;10.066;2022-12-07T09:31:25;1.90;99.90
8896;DHT22;4484;48.928;10.066;2022-12-07T09:34:00;2.00;99.90
8896;DHT22;4484;48.928;10.066;2022-12-07T09:36:28;2.10;99.90
8896;DHT22;4484;48.928;10.066;2022-12-07T09:38:55;2.10;99.90
8896;DHT22;4484;48.928;10.066;2022-12-07T09:41:23;2.10;99.90
8896;DHT22;4484;48.928;10.066;2022-12-07T09:43:52;2.20;99.90
8896;DHT22;4484;48.928;10.066;2022-12-07T09:46:20;2.20;99.90
8896;DHT22;4484;48.928;10.066;2022-12-07T09:48:48;2.30;99.90
8896;DHT22;4484;48.928;10.066;2022-12-07T09:51:21;2.30;99.90
8896;DHT22;4484;48.928;10.066;2022-12-07T09:53:52;2.40;99.90
8896;DHT22;4484;48.928;10.066;2022-12-07T09:56:21;2.50;99.90
8896;DHT22;4484;48.928;10.066;2022-12-07T09:58:49;2.60;99.90
8896;DHT22;4484;48.928;10.066;2022-12-07T10:01:17;2.70;99.90
8896;DHT22;4484;48.928;10.066;2022-12-07T10:03:53;2.70;99.90
8896;DHT22;4484;48.928;10.066;2022-12-07T10:06:21;2.80;99.90
8896;DHT22;4484;48.928;10.066;2022-12-07T10:08:48;2.80;99.90
8896;DHT22;4484;48.928;10.066;2022-12-07T10:11:15;2.80;99.90
8896;DHT22;4484;48.928;10.066;2022-12-07T10:13:52;2.90;99.90
8896;DHT22;4484;48.928;10.066;2022-12-07T10:16:40;2.90;99.90
8896;DHT22;4484;48.928;10.066;2022-12-07T10:19:26;2.90;99.90
8896;DHT22;4484;48.928;10.066;2022-12-07T10:22:10;2.90;99.90
8896;DHT22;4484;48.928;10.066;2022-12-07T10:24:38;2.90;99.90
8896;DHT22;4484;48.928;10.066;2022-12-07T10:27:35;2.90;99.90
8896;DHT22;4484;48.928;10.066;2022-12-07T10:30:07;2.90;99.90
8896;DHT22;4484;48.928;10.066;2022-12-07T10:32:36;3.00;99.90
8896;DHT22;4484;48.928;10.066;2022-12-07T10:35:30;3.00;99.90
8896;DHT22;4484;48.928;10.066;2022-12-07T10:37:59;3.00;99.90
8896;DHT22;4484;48.928;10.066;2022-12-07T10:40:34;3.10;99.90
8896;DHT22;4484;48.928;10.066;2022-12-07T10:48:45;3.10;99.90
8896;DHT22;4484;48.928;10.066;2022-12-07T11:03:03;3.30;99.90
8896;DHT22;4484;48.928;10.066;2022-12-07T11:22:31;3.20;99.90
8896;DHT22;4484;48.928;10.066;2022-12-07T11:30:19;3.20;99.90
8896;DHT22;4484;48.928;10.066;2022-12-07T11:33:09;3.30;99.90
8896;DHT22;4484;48.928;10.066;2022-12-07T11:38:21;3.30;99.90
8896;DHT22;4484;48.928;10.066;2022-12-07T11:41:00;3.40;99.90
8896;DHT22;4484;48.928;10.066;2022-12-07T11:43:54;3.40;99.90
8896;DHT22;4484;48.928;10.066;2022-12-07T11:46:27;3.50;99.90
8896;DHT22;4484;48.928;10.066;2022-12-07T11:51:43;3.40;99.90
8896;DHT22;4484;48.928;10.066;2022-12-07T11:54:21;3.40;99.90
8896;DHT22;4484;48.928;10.066;2022-12-07T11:56:51;3.40;99.90
8896;DHT22;4484;48.928;10.066;2022-12-07T11:59:27;3.30;99.90
8896;DHT22;4484;48.928;10.066;2022-12-07T12:02:13;3.20;99.90
8896;DHT22;4484;48.928;10.066;2022-12-07T12:04:52;3.20;99.90
8896;DHT22;4484;48.928;10.066;2022-12-07T12:07:23;3.20;99.90
8896;DHT22;4484;48.928;10.066;2022-12-07T12:10:21;3.10;99.90
8896;DHT22;4484;48.928;10.066;2022-12-07T12:19:21;3.00;99.90
8896;DHT22;4484;48.928;10.066;2022-12-07T12:21:54;2.90;99.90
8896;DHT22;4484;48.928;10.066;2022-12-07T12:24:27;2.90;99.90
8896;DHT22;4484;48.928;10.066;2022-12-07T12:27:14;2.90;99.90
8896;DHT22;4484;48.928;10.066;2022-12-07T12:29:43;2.90;99.90
8896;DHT22;4484;48.928;10.066;2022-12-07T12:32:43;2.90;99.90
8896;DHT22;4484;48.928;10.066;2022-12-07T12:35:31;2.90;99.90
8896;DHT22;4484;48.928;10.066;2022-12-07T12:38:30;2.90;99.90
8896;DHT22;4484;48.928;10.066;2022-12-07T12:40:57;2.90;99.90
8896;DHT22;4484;48.928;10.066;2022-12-07T12:43:53;2.90;99.90
8896;DHT22;4484;48.928;10.066;2022-12-07T12:54:22;2.80;99.90
8896;DHT22;4484;48.928;10.066;2022-12-07T12:57:13;2.80;99.90
8896;DHT22;4484;48.928;10.066;2022-12-07T13:05:26;2.80;99.90
8896;DHT22;4484;48.928;10.066;2022-12-07T13:18:35;2.70;99.90
8896;DHT22;4484;48.928;10.066;2022-12-07T13:33:59;2.50;99.90
8896;DHT22;4484;48.928;10.066;2022-12-07T13:36:37;2.50;99.90
8896;DHT22;4484;48.928;10.066;2022-12-07T13:39:21;2.50;99.90
8896;DHT22;4484;48.928;10.066;2022-12-07T13:41:54;2.50;99.90
8896;DHT22;4484;48.928;10.066;2022-12-07T13:44:25;2.50;99.90
8896;DHT22;4484;48.928;10.066;2022-12-07T13:49:31;2.50;99.90
8896;DHT22;4484;48.928;10.066;2022-12-07T13:52:28;2.50;99.90
8896;DHT22;4484;48.928;10.066;2022-12-07T13:57:35;2.50;99.90
8896;DHT22;4484;48.928;10.066;2022-12-07T14:00:15;2.50;99.90
8896;DHT22;4484;48.928;10.066;2022-12-07T14:03:00;2.50;99.90
8896;DHT22;4484;48.928;10.066;2022-12-07T14:05:29;2.50;99.90
8896;DHT22;4484;48.928;10.066;2022-12-07T14:12:57;2.50;99.90
8896;DHT22;4484;48.928;10.066;2022-12-07T14:17:55;2.50;99.90
8896;DHT22;4484;48.928;10.066;2022-12-07T14:20:38;2.40;99.90
8896;DHT22;4484;48.928;10.066;2022-12-07T14:23:23;2.40;99.90
8896;DHT22;4484;48.928;10.066;2022-12-07T14:25:53;2.40;99.90
8896;DHT22;4484;48.928;10.066;2022-12-07T14:28:30;2.40;99.90
8896;DHT22;4484;48.928;10.066;2022-12-07T14:30:58;2.40;99.90
8896;DHT22;4484;48.928;10.066;2022-12-07T14:33:25;2.40;99.90
8896;DHT22;4484;48.928;10.066;2022-12-07T14:35:52;2.40;99.90
8896;DHT22;4484;48.928;10.066;2022-12-07T14:38:25;2.40;99.90
8896;DHT22;4484;48.928;10.066;2022-12-07T14:40:53;2.40;99.90
8896;DHT22;4484;48.928;10.066;2022-12-07T14:43:21;2.40;99.90
8896;DHT22;4484;48.928;10.066;2022-12-07T14:45:48;2.40;99.90
8896;DHT22;4484;48.928;10.066;2022-12-07T14:48:15;2.50;99.90
8896;DHT22;4484;48.928;10.066;2022-12-07T14:51:02;2.40;99.90
8896;DHT22;4484;48.928;10.066;2022-12-07T14:53:51;2.40;99.90
8896;DHT22;4484;48.928;10.066;2022-12-07T14:56:23;2.40;99.90
8896;DHT22;4484;48.928;10.066;2022-12-07T14:58:51;2.40;99.90
8896;DHT22;4484;48.928;10.066;2022-12-07T15:01:18;2.40;99.90
8896;DHT22;4484;48.928;10.066;2022-12-07T15:03:45;2.40;99.90
8896;DHT22;4484;48.928;10.066;2022-12-07T15:06:17;2.40;99.90
8896;DHT22;4484;48.928;10.066;2022-12-07T15:08:49;2.40;99.90
8896;DHT22;4484;48.928;10.066;2022-12-07T15:11:18;2.30;99.90
8896;DHT22;4484;48.928;10.066;2022-12-07T15:13:45;2.40;99.90
8896;DHT22;4484;48.928;10.066;2022-12-07T15:16:43;2.40;99.90
8896;DHT22;4484;48.928;10.066;2022-12-07T15:19:31;2.40;99.90
8896;DHT22;4484;48.928;10.066;2022-12-07T15:21:58;2.40;99.90
8896;DHT22;4484;48.928;10.066;2022-12-07T15:24:26;2.30;99.90
8896;DHT22;4484;48.928;10.066;2022-12-07T15:26:53;2.30;99.90
8896;DHT22;4484;48.928;10.066;2022-12-07T15:29:20;2.30;99.90
8896;DHT22;4484;48.928;10.066;2022-12-07T15:31:50;2.20;99.90
8896;DHT22;4484;48.928;10.066;2022-12-07T15:34:26;2.20;99.90
8896;DHT22;4484;48.928;10.066;2022-12-07T15:37:01;2.20;99.90
8896;DHT22;4484;48.928;10.066;2022-12-07T15:39:28;2.20;99.90
8896;DHT22;4484;48.928;10.066;2022-12-07T15:41:55;2.10;99.90
8896;DHT22;4484;48.928;10.066;2022-12-07T15:44:22;2.10;99.90
8896;DHT22;4484;48.928;10.066;2022-12-07T15:47:08;2.10;99.90
8896;DHT22;4484;48.928;10.066;2022-12-07T15:49:35;2.00;99.90
8896;DHT22;4484;48.928;10.066;2022-12-07T15:52:02;2.00;99.90
8896;DHT22;4484;48.928;10.066;2022-12-07T15:54:29;2.00;99.90
8896;DHT22;4484;48.928;10.066;2022-12-07T15:56:56;2.00;99.90
8896;DHT22;4484;48.928;10.066;2022-12-07T15:59:25;1.90;99.90
8896;DHT22;4484;48.928;10.066;2022-12-07T16:01:53;1.90;99.90
8896;DHT22;4484;48.928;10.066;2022-12-07T16:04:20;1.90;99.90
8896;DHT22;4484;48.928;10.066;2022-12-07T16:06:47;1.90;99.90
8896;DHT22;4484;48.928;10.066;2022-12-07T16:09:15;1.80;99.90
8896;DHT22;4484;48.928;10.066;2022-12-07T16:11:42;1.80;99.90
8896;DHT22;4484;48.928;10.066;2022-12-07T16:14:08;1.80;99.90
8896;DHT22;4484;48.928;10.066;2022-12-07T16:16:35;1.70;99.90
8896;DHT22;4484;48.928;10.066;2022-12-07T16:19:02;1.70;99.90
8896;DHT22;4484;48.928;10.066;2022-12-07T16:21:29;1.70;99.90
8896;DHT22;4484;48.928;10.066;2022-12-07T16:23:58;1.70;99.90
8896;DHT22;4484;48.928;10.066;2022-12-07T16:26:25;1.60;99.90
8896;DHT22;4484;48.928;10.066;2022-12-07T16:28:53;1.60;99.90
8896;DHT22;4484;48.928;10.066;2022-12-07T16:31:22;1.60;99.90
8896;DHT22;4484;48.928;10.066;2022-12-07T16:33:49;1.60;99.90
8896;DHT22;4484;48.928;10.066;2022-12-07T16:36:17;1.60;99.90
8896;DHT22;4484;48.928;10.066;2022-12-07T16:39:05;1.60;99.90
8896;DHT22;4484;48.928;10.066;2022-12-07T16:41:32;1.60;99.90
8896;DHT22;4484;48.928;10.066;2022-12-07T16:44:04;1.60;99.90
8896;DHT22;4484;48.928;10.066;2022-12-07T16:46:35;1.60;99.90
8896;DHT22;4484;48.928;10.066;2022-12-07T16:49:03;1.60;99.90
8896;DHT22;4484;48.928;10.066;2022-12-07T16:51:30;1.70;99.90
8896;DHT22;4484;48.928;10.066;2022-12-07T16:53:57;1.70;99.90
8896;DHT22;4484;48.928;10.066;2022-12-07T16:56:25;1.70;99.90
8896;DHT22;4484;48.928;10.066;2022-12-07T16:58:53;1.70;99.90
8896;DHT22;4484;48.928;10.066;2022-12-07T17:01:21;1.70;99.90
8896;DHT22;4484;48.928;10.066;2022-12-07T17:03:49;1.70;99.90
8896;DHT22;4484;48.928;10.066;2022-12-07T17:06:18;1.70;99.90
8896;DHT22;4484;48.928;10.066;2022-12-07T17:08:45;1.70;99.90
8896;DHT22;4484;48.928;10.066;2022-12-07T17:11:13;1.60;99.90
8896;DHT22;4484;48.928;10.066;2022-12-07T17:13:41;1.60;99.90
8896;DHT22;4484;48.928;10.066;2022-12-07T17:16:27;1.60;99.90
8896;DHT22;4484;48.928;10.066;2022-12-07T17:18:55;1.60;99.90
8896;DHT22;4484;48.928;10.066;2022-12-07T17:21:22;1.60;99.90
8896;DHT22;4484;48.928;10.066;2022-12-07T17:23:50;1.60;99.90
8896;DHT22;4484;48.928;10.066;2022-12-07T17:26:20;1.60;99.90
8896;DHT22;4484;48.928;10.066;2022-12-07T17:28:48;1.60;99.90
8896;DHT22;4484;48.928;10.066;2022-12-07T17:31:17;1.50;99.90
8896;DHT22;4484;48.928;10.066;2022-12-07T17:33:45;1.50;99.90
8896;DHT22;4484;48.928;10.066;2022-12-07T17:36:14;1.50;99.90
8896;DHT22;4484;48.928;10.066;2022-12-07T17:38:41;1.50;99.90
8896;DHT22;4484;48.928;10.066;2022-12-07T17:41:15;1.50;99.90
8896;DHT22;4484;48.928;10.066;2022-12-07T17:44:09;1.50;99.90
8896;DHT22;4484;48.928;10.066;2022-12-07T17:46:37;1.50;99.90
8896;DHT22;4484;48.928;10.066;2022-12-07T17:49:05;1.50;99.90
8896;DHT22;4484;48.928;10.066;2022-12-07T17:51:33;1.40;99.90
8896;DHT22;4484;48.928;10.066;2022-12-07T17:54:19;1.40;99.90
8896;DHT22;4484;48.928;10.066;2022-12-07T17:56:46;1.40;99.90
8896;DHT22;4484;48.928;10.066;2022-12-07T17:59:13;1.40;99.90
8896;DHT22;4484;48.928;10.066;2022-12-07T18:01:41;1.40;99.90
8896;DHT22;4484;48.928;10.066;2022-12-07T18:04:08;1.50;99.90
8896;DHT22;4484;48.928;10.066;2022-12-07T18:06:35;1.40;99.90
8896;DHT22;4484;48.928;10.066;2022-12-07T18:09:02;1.40;99.90
8896;DHT22;4484;48.928;10.066;2022-12-07T18:11:30;1.40;99.90
8896;DHT22;4484;48.928;10.066;2022-12-07T18:13:56;1.40;99.90
8896;DHT22;4484;48.928;10.066;2022-12-07T18:16:26;1.40;99.90
8896;DHT22;4484;48.928;10.066;2022-12-07T18:18:53;1.40;99.90
8896;DHT22;4484;48.928;10.066;2022-12-07T18:21:23;1.40;99.90
8896;DHT22;4484;48.928;10.066;2022-12-07T18:23:52;1.50;99.90
8896;DHT22;4484;48.928;10.066;2022-12-07T18:26:21;1.50;99.90
8896;DHT22;4484;48.928;10.066;2022-12-07T18:28:49;1.50;99.90
8896;DHT22;4484;48.928;10.066;2022-12-07T18:31:16;1.50;99.90
8896;DHT22;4484;48.928;10.066;2022-12-07T18:33:44;1.50;99.90
8896;DHT22;4484;48.928;10.066;2022-12-07T18:36:13;1.50;99.90
8896;DHT22;4484;48.928;10.066;2022-12-07T18:38:41;1.50;99.90
8896;DHT22;4484;48.928;10.066;2022-12-07T18:41:10;1.50;99.90
8896;DHT22;4484;48.928;10.066;2022-12-07T18:43:37;1.50;99.90
8896;DHT22;4484;48.928;10.066;2022-12-07T18:46:16;1.50;99.90
8896;DHT22;4484;48.928;10.066;2022-12-07T18:48:47;1.50;99.90